Terminal Aerodrome Forecast
Issued by NWS Cleveland, OH

Home | Current Version | Previous Version | Text Only | Print | Product List | Glossary On
Versions: 1 2 3 4 5 6 7 8 9 10 11 12 13 14 15 16 17
724
FTUS41 KCLE 272339
TAFYNG
TAF
KYNG 272339Z 2800/2824 09004KT P6SM SCT040 BKN150
     FM280100 10004KT P6SM VCTS BKN040CB OVC080
     FM280300 VRB03KT P6SM FEW040 BKN150
     FM280900 VRB03KT 6SM BR FEW040 BKN150
      TEMPO 2810/2813 3SM BR
     FM281500 22005KT P6SM SCT040 BKN200
     FM282300 30005KT P6SM SCT040 BKN150=

USA.gov is the U.S. government's official web portal to all federal, state and local government web resources and services.